sensor_id;sensor_type;location;lat;lon;timestamp;P1;durP1;ratioP1;P2;durP2;ratioP2
49900;SDS011;35789;48.414;12.768;2022-10-13T00:00:00;28.7;;;19.7;;
49900;SDS011;35789;48.414;12.768;2022-10-13T00:05:00;28.6;;;18.8;;
49900;SDS011;35789;48.414;12.768;2022-10-13T00:10:00;28.6;;;18.8;;
49900;SDS011;35789;48.414;12.768;2022-10-13T00:15:00;28.6;;;18.8;;
49900;SDS011;35789;48.414;12.768;2022-10-13T00:20:00;28.6;;;18.8;;
49900;SDS011;35789;48.414;12.768;2022-10-13T00:25:00;28.6;;;18.8;;
49900;SDS011;35789;48.414;12.768;2022-10-13T00:30:02;28.6;;;18.8;;
49900;SDS011;35789;48.414;12.768;2022-10-13T00:35:00;27.3;;;18.3;;
49900;SDS011;35789;48.414;12.768;2022-10-13T00:40:00;27.3;;;18.3;;
49900;SDS011;35789;48.414;12.768;2022-10-13T00:45:05;27.3;;;18.3;;
49900;SDS011;35789;48.414;12.768;2022-10-13T00:50:00;27.3;;;18.3;;
49900;SDS011;35789;48.414;12.768;2022-10-13T00:55:02;27.3;;;18.3;;
49900;SDS011;35789;48.414;12.768;2022-10-13T01:00:00;27.4;;;17.9;;
49900;SDS011;35789;48.414;12.768;2022-10-13T01:05:01;27.4;;;17.9;;
49900;SDS011;35789;48.414;12.768;2022-10-13T01:10:01;27.4;;;17.9;;
49900;SDS011;35789;48.414;12.768;2022-10-13T01:15:06;27.4;;;17.9;;
49900;SDS011;35789;48.414;12.768;2022-10-13T01:20:16;27.4;;;17.9;;
49900;SDS011;35789;48.414;12.768;2022-10-13T01:25:03;27.4;;;17.9;;
49900;SDS011;35789;48.414;12.768;2022-10-13T01:30:05;28.7;;;18.2;;
49900;SDS011;35789;48.414;12.768;2022-10-13T01:35:06;28.7;;;18.2;;
49900;SDS011;35789;48.414;12.768;2022-10-13T01:40:05;28.7;;;18.2;;
49900;SDS011;35789;48.414;12.768;2022-10-13T01:45:01;28.7;;;18.2;;
49900;SDS011;35789;48.414;12.768;2022-10-13T01:50:00;28.7;;;18.2;;
49900;SDS011;35789;48.414;12.768;2022-10-13T01:55:05;28.7;;;18.2;;
49900;SDS011;35789;48.414;12.768;2022-10-13T02:00:03;25.4;;;17.3;;
49900;SDS011;35789;48.414;12.768;2022-10-13T02:05:08;25.4;;;17.3;;
49900;SDS011;35789;48.414;12.768;2022-10-13T02:10:05;25.4;;;17.3;;
49900;SDS011;35789;48.414;12.768;2022-10-13T02:15:01;25.4;;;17.3;;
49900;SDS011;35789;48.414;12.768;2022-10-13T02:20:04;25.4;;;17.3;;
49900;SDS011;35789;48.414;12.768;2022-10-13T02:25:00;25.4;;;17.3;;
49900;SDS011;35789;48.414;12.768;2022-10-13T02:30:00;26.4;;;17.7;;
49900;SDS011;35789;48.414;12.768;2022-10-13T02:35:00;26.4;;;17.7;;
49900;SDS011;35789;48.414;12.768;2022-10-13T02:40:00;26.4;;;17.7;;
49900;SDS011;35789;48.414;12.768;2022-10-13T02:45:00;26.4;;;17.7;;
49900;SDS011;35789;48.414;12.768;2022-10-13T02:50:00;26.4;;;17.7;;
49900;SDS011;35789;48.414;12.768;2022-10-13T02:55:00;26.4;;;17.7;;
49900;SDS011;35789;48.414;12.768;2022-10-13T03:00:00;31.9;;;19.1;;
49900;SDS011;35789;48.414;12.768;2022-10-13T03:05:00;31.9;;;19.1;;
49900;SDS011;35789;48.414;12.768;2022-10-13T03:10:00;31.9;;;19.1;;
49900;SDS011;35789;48.414;12.768;2022-10-13T03:15:00;31.9;;;19.1;;
49900;SDS011;35789;48.414;12.768;2022-10-13T03:20:00;31.9;;;19.1;;
49900;SDS011;35789;48.414;12.768;2022-10-13T03:25:00;31.9;;;19.1;;
49900;SDS011;35789;48.414;12.768;2022-10-13T03:30:00;33.2;;;19.9;;
49900;SDS011;35789;48.414;12.768;2022-10-13T03:35:00;33.2;;;19.9;;
49900;SDS011;35789;48.414;12.768;2022-10-13T03:40:00;33.2;;;19.9;;
49900;SDS011;35789;48.414;12.768;2022-10-13T03:45:00;33.2;;;19.9;;
49900;SDS011;35789;48.414;12.768;2022-10-13T03:50:00;33.2;;;19.9;;
49900;SDS011;35789;48.414;12.768;2022-10-13T03:55:00;33.2;;;19.9;;
49900;SDS011;35789;48.414;12.768;2022-10-13T04:00:00;32.0;;;19.9;;
49900;SDS011;35789;48.414;12.768;2022-10-13T04:05:00;32.0;;;19.9;;
49900;SDS011;35789;48.414;12.768;2022-10-13T04:10:00;32.0;;;19.9;;
49900;SDS011;35789;48.414;12.768;2022-10-13T04:15:00;32.0;;;19.9;;
49900;SDS011;35789;48.414;12.768;2022-10-13T04:20:00;32.0;;;19.9;;
49900;SDS011;35789;48.414;12.768;2022-10-13T04:25:00;32.0;;;19.9;;
49900;SDS011;35789;48.414;12.768;2022-10-13T04:30:00;34.4;;;20.8;;
49900;SDS011;35789;48.414;12.768;2022-10-13T04:35:00;34.4;;;20.8;;
49900;SDS011;35789;48.414;12.768;2022-10-13T04:40:00;34.4;;;20.8;;
49900;SDS011;35789;48.414;12.768;2022-10-13T04:45:00;34.4;;;20.8;;
49900;SDS011;35789;48.414;12.768;2022-10-13T04:50:00;34.4;;;20.8;;
49900;SDS011;35789;48.414;12.768;2022-10-13T04:55:00;34.4;;;20.8;;
49900;SDS011;35789;48.414;12.768;2022-10-13T05:00:00;38.7;;;23.0;;
49900;SDS011;35789;48.414;12.768;2022-10-13T05:05:00;38.7;;;23.0;;
49900;SDS011;35789;48.414;12.768;2022-10-13T05:10:00;38.7;;;23.0;;
49900;SDS011;35789;48.414;12.768;2022-10-13T05:15:00;38.7;;;23.0;;
49900;SDS011;35789;48.414;12.768;2022-10-13T05:20:00;38.7;;;23.0;;
49900;SDS011;35789;48.414;12.768;2022-10-13T05:25:00;38.7;;;23.0;;
49900;SDS011;35789;48.414;12.768;2022-10-13T05:30:00;62.5;;;33.9;;
49900;SDS011;35789;48.414;12.768;2022-10-13T05:35:00;62.5;;;33.9;;
49900;SDS011;35789;48.414;12.768;2022-10-13T05:40:00;62.5;;;33.9;;
49900;SDS011;35789;48.414;12.768;2022-10-13T05:45:00;62.5;;;33.9;;
49900;SDS011;35789;48.414;12.768;2022-10-13T05:50:00;62.5;;;33.9;;
49900;SDS011;35789;48.414;12.768;2022-10-13T05:55:02;62.5;;;33.9;;
49900;SDS011;35789;48.414;12.768;2022-10-13T06:00:04;39.2;;;24.6;;
49900;SDS011;35789;48.414;12.768;2022-10-13T06:05:02;39.2;;;24.6;;
49900;SDS011;35789;48.414;12.768;2022-10-13T06:10:00;39.2;;;24.6;;
49900;SDS011;35789;48.414;12.768;2022-10-13T06:15:00;39.2;;;24.6;;
49900;SDS011;35789;48.414;12.768;2022-10-13T06:20:00;39.2;;;24.6;;
49900;SDS011;35789;48.414;12.768;2022-10-13T06:25:00;39.2;;;24.6;;
49900;SDS011;35789;48.414;12.768;2022-10-13T06:30:00;31.3;;;19.8;;
49900;SDS011;35789;48.414;12.768;2022-10-13T06:35:00;31.3;;;19.8;;
49900;SDS011;35789;48.414;12.768;2022-10-13T06:40:00;31.3;;;19.8;;
49900;SDS011;35789;48.414;12.768;2022-10-13T06:45:00;31.3;;;19.8;;
49900;SDS011;35789;48.414;12.768;2022-10-13T06:50:00;31.3;;;19.8;;
49900;SDS011;35789;48.414;12.768;2022-10-13T06:55:00;31.3;;;19.8;;
49900;SDS011;35789;48.414;12.768;2022-10-13T07:00:00;33.8;;;21.2;;
49900;SDS011;35789;48.414;12.768;2022-10-13T07:05:00;33.8;;;21.2;;
49900;SDS011;35789;48.414;12.768;2022-10-13T07:10:00;33.8;;;21.2;;
49900;SDS011;35789;48.414;12.768;2022-10-13T07:15:00;33.8;;;21.2;;
49900;SDS011;35789;48.414;12.768;2022-10-13T07:20:00;33.8;;;21.2;;
49900;SDS011;35789;48.414;12.768;2022-10-13T07:25:00;33.8;;;21.2;;
49900;SDS011;35789;48.414;12.768;2022-10-13T07:30:00;30.6;;;19.9;;
49900;SDS011;35789;48.414;12.768;2022-10-13T07:35:00;30.6;;;19.9;;
49900;SDS011;35789;48.414;12.768;2022-10-13T07:40:00;30.6;;;19.9;;
49900;SDS011;35789;48.414;12.768;2022-10-13T07:45:00;30.6;;;19.9;;
49900;SDS011;35789;48.414;12.768;2022-10-13T07:50:00;30.6;;;19.9;;
49900;SDS011;35789;48.414;12.768;2022-10-13T07:55:00;30.6;;;19.9;;
49900;SDS011;35789;48.414;12.768;2022-10-13T08:00:00;32.2;;;20.0;;
49900;SDS011;35789;48.414;12.768;2022-10-13T08:05:01;32.2;;;20.0;;
49900;SDS011;35789;48.414;12.768;2022-10-13T08:10:00;32.2;;;20.0;;
49900;SDS011;35789;48.414;12.768;2022-10-13T08:15:00;32.2;;;20.0;;
49900;SDS011;35789;48.414;12.768;2022-10-13T08:20:00;32.2;;;20.0;;
49900;SDS011;35789;48.414;12.768;2022-10-13T08:25:00;32.2;;;20.0;;
49900;SDS011;35789;48.414;12.768;2022-10-13T08:30:00;26.9;;;17.8;;
49900;SDS011;35789;48.414;12.768;2022-10-13T08:35:00;26.9;;;17.8;;
49900;SDS011;35789;48.414;12.768;2022-10-13T08:40:00;26.9;;;17.8;;
49900;SDS011;35789;48.414;12.768;2022-10-13T08:45:02;26.9;;;17.8;;
49900;SDS011;35789;48.414;12.768;2022-10-13T08:50:04;26.9;;;17.8;;
49900;SDS011;35789;48.414;12.768;2022-10-13T08:55:00;26.9;;;17.8;;
49900;SDS011;35789;48.414;12.768;2022-10-13T09:00:00;27.8;;;17.5;;
49900;SDS011;35789;48.414;12.768;2022-10-13T09:05:02;27.8;;;17.5;;
49900;SDS011;35789;48.414;12.768;2022-10-13T09:10:00;27.8;;;17.5;;
49900;SDS011;35789;48.414;12.768;2022-10-13T09:15:04;27.8;;;17.5;;
49900;SDS011;35789;48.414;12.768;2022-10-13T09:20:04;27.8;;;17.5;;
49900;SDS011;35789;48.414;12.768;2022-10-13T09:25:08;27.8;;;17.5;;
49900;SDS011;35789;48.414;12.768;2022-10-13T09:30:18;24.7;;;14.1;;
49900;SDS011;35789;48.414;12.768;2022-10-13T09:35:12;24.7;;;14.1;;
49900;SDS011;35789;48.414;12.768;2022-10-13T09:40:01;24.7;;;14.1;;
49900;SDS011;35789;48.414;12.768;2022-10-13T09:45:12;24.7;;;14.1;;
49900;SDS011;35789;48.414;12.768;2022-10-13T09:50:03;24.7;;;14.1;;
49900;SDS011;35789;48.414;12.768;2022-10-13T09:55:00;24.7;;;14.1;;
49900;SDS011;35789;48.414;12.768;2022-10-13T10:00:05;21.2;;;13.3;;
49900;SDS011;35789;48.414;12.768;2022-10-13T10:05:05;21.2;;;13.3;;
49900;SDS011;35789;48.414;12.768;2022-10-13T10:10:03;21.2;;;13.3;;
49900;SDS011;35789;48.414;12.768;2022-10-13T10:15:00;21.2;;;13.3;;
49900;SDS011;35789;48.414;12.768;2022-10-13T10:20:13;21.2;;;13.3;;
49900;SDS011;35789;48.414;12.768;2022-10-13T10:25:04;21.2;;;13.3;;
49900;SDS011;35789;48.414;12.768;2022-10-13T10:30:02;23.1;;;13.1;;
49900;SDS011;35789;48.414;12.768;2022-10-13T10:35:03;23.1;;;13.1;;
49900;SDS011;35789;48.414;12.768;2022-10-13T10:40:07;23.1;;;13.1;;
49900;SDS011;35789;48.414;12.768;2022-10-13T10:45:03;23.1;;;13.1;;
49900;SDS011;35789;48.414;12.768;2022-10-13T10:50:02;23.1;;;13.1;;
49900;SDS011;35789;48.414;12.768;2022-10-13T10:55:13;23.1;;;13.1;;
49900;SDS011;35789;48.414;12.768;2022-10-13T11:00:04;22.0;;;9.5;;
49900;SDS011;35789;48.414;12.768;2022-10-13T11:05:00;22.0;;;9.5;;
49900;SDS011;35789;48.414;12.768;2022-10-13T11:10:14;22.0;;;9.5;;
49900;SDS011;35789;48.414;12.768;2022-10-13T11:15:05;22.0;;;9.5;;
49900;SDS011;35789;48.414;12.768;2022-10-13T11:20:02;22.0;;;9.5;;
49900;SDS011;35789;48.414;12.768;2022-10-13T11:25:06;22.0;;;9.5;;
49900;SDS011;35789;48.414;12.768;2022-10-13T11:30:01;18.6;;;10.2;;
49900;SDS011;35789;48.414;12.768;2022-10-13T11:35:13;18.6;;;10.2;;
49900;SDS011;35789;48.414;12.768;2022-10-13T11:40:14;18.6;;;10.2;;
49900;SDS011;35789;48.414;12.768;2022-10-13T11:45:02;18.6;;;10.2;;
49900;SDS011;35789;48.414;12.768;2022-10-13T11:50:02;18.6;;;10.2;;
49900;SDS011;35789;48.414;12.768;2022-10-13T11:55:02;18.6;;;10.2;;
49900;SDS011;35789;48.414;12.768;2022-10-13T12:00:00;13.5;;;7.4;;
49900;SDS011;35789;48.414;12.768;2022-10-13T12:05:03;13.5;;;7.4;;
49900;SDS011;35789;48.414;12.768;2022-10-13T12:10:02;13.5;;;7.4;;
49900;SDS011;35789;48.414;12.768;2022-10-13T12:15:00;13.5;;;7.4;;
49900;SDS011;35789;48.414;12.768;2022-10-13T12:20:01;13.5;;;7.4;;
49900;SDS011;35789;48.414;12.768;2022-10-13T12:25:01;13.5;;;7.4;;
49900;SDS011;35789;48.414;12.768;2022-10-13T12:30:01;13.6;;;8.1;;
49900;SDS011;35789;48.414;12.768;2022-10-13T12:35:09;13.6;;;8.1;;
49900;SDS011;35789;48.414;12.768;2022-10-13T12:40:00;13.6;;;8.1;;
49900;SDS011;35789;48.414;12.768;2022-10-13T12:45:00;13.6;;;8.1;;
49900;SDS011;35789;48.414;12.768;2022-10-13T12:55:00;13.6;;;8.1;;
49900;SDS011;35789;48.414;12.768;2022-10-13T13:00:00;17.7;;;9.0;;
49900;SDS011;35789;48.414;12.768;2022-10-13T13:05:00;17.7;;;9.0;;
49900;SDS011;35789;48.414;12.768;2022-10-13T13:10:13;17.7;;;9.0;;
49900;SDS011;35789;48.414;12.768;2022-10-13T13:20:00;17.7;;;9.0;;
49900;SDS011;35789;48.414;12.768;2022-10-13T13:25:00;17.7;;;9.0;;
49900;SDS011;35789;48.414;12.768;2022-10-13T13:30:00;20.9;;;10.2;;
49900;SDS011;35789;48.414;12.768;2022-10-13T13:35:00;20.9;;;10.2;;
49900;SDS011;35789;48.414;12.768;2022-10-13T13:40:00;20.9;;;10.2;;
49900;SDS011;35789;48.414;12.768;2022-10-13T13:45:00;20.9;;;10.2;;
49900;SDS011;35789;48.414;12.768;2022-10-13T13:50:00;20.9;;;10.2;;
49900;SDS011;35789;48.414;12.768;2022-10-13T13:55:00;20.9;;;10.2;;
49900;SDS011;35789;48.414;12.768;2022-10-13T14:00:00;16.1;;;8.1;;
49900;SDS011;35789;48.414;12.768;2022-10-13T14:05:00;16.1;;;8.1;;
49900;SDS011;35789;48.414;12.768;2022-10-13T14:10:00;16.1;;;8.1;;
49900;SDS011;35789;48.414;12.768;2022-10-13T14:15:00;16.1;;;8.1;;
49900;SDS011;35789;48.414;12.768;2022-10-13T14:20:00;16.1;;;8.1;;
49900;SDS011;35789;48.414;12.768;2022-10-13T14:25:00;16.1;;;8.1;;
49900;SDS011;35789;48.414;12.768;2022-10-13T14:30:00;18.8;;;8.4;;
49900;SDS011;35789;48.414;12.768;2022-10-13T14:35:00;18.8;;;8.4;;
49900;SDS011;35789;48.414;12.768;2022-10-13T14:40:00;18.8;;;8.4;;
49900;SDS011;35789;48.414;12.768;2022-10-13T14:45:00;18.8;;;8.4;;
49900;SDS011;35789;48.414;12.768;2022-10-13T14:50:00;18.8;;;8.4;;
49900;SDS011;35789;48.414;12.768;2022-10-13T14:55:00;18.8;;;8.4;;
49900;SDS011;35789;48.414;12.768;2022-10-13T15:00:00;16.6;;;8.7;;
49900;SDS011;35789;48.414;12.768;2022-10-13T15:05:00;16.6;;;8.7;;
49900;SDS011;35789;48.414;12.768;2022-10-13T15:10:00;16.6;;;8.7;;
49900;SDS011;35789;48.414;12.768;2022-10-13T15:15:00;16.6;;;8.7;;
49900;SDS011;35789;48.414;12.768;2022-10-13T15:20:00;16.6;;;8.7;;
49900;SDS011;35789;48.414;12.768;2022-10-13T15:25:00;16.6;;;8.7;;
49900;SDS011;35789;48.414;12.768;2022-10-13T15:30:00;14.4;;;6.0;;
49900;SDS011;35789;48.414;12.768;2022-10-13T15:35:00;14.4;;;6.0;;
49900;SDS011;35789;48.414;12.768;2022-10-13T15:40:00;14.4;;;6.0;;
49900;SDS011;35789;48.414;12.768;2022-10-13T15:45:00;14.4;;;6.0;;
49900;SDS011;35789;48.414;12.768;2022-10-13T15:50:00;14.4;;;6.0;;
49900;SDS011;35789;48.414;12.768;2022-10-13T15:55:00;14.4;;;6.0;;
49900;SDS011;35789;48.414;12.768;2022-10-13T16:00:00;14.2;;;6.5;;
49900;SDS011;35789;48.414;12.768;2022-10-13T16:05:00;14.2;;;6.5;;
49900;SDS011;35789;48.414;12.768;2022-10-13T16:10:00;14.2;;;6.5;;
49900;SDS011;35789;48.414;12.768;2022-10-13T16:15:00;14.2;;;6.5;;
49900;SDS011;35789;48.414;12.768;2022-10-13T16:20:00;14.2;;;6.5;;
49900;SDS011;35789;48.414;12.768;2022-10-13T16:25:00;14.2;;;6.5;;
49900;SDS011;35789;48.414;12.768;2022-10-13T16:30:00;19.1;;;9.4;;
49900;SDS011;35789;48.414;12.768;2022-10-13T16:35:00;19.1;;;9.4;;
49900;SDS011;35789;48.414;12.768;2022-10-13T16:40:00;19.1;;;9.4;;
49900;SDS011;35789;48.414;12.768;2022-10-13T16:45:00;19.1;;;9.4;;
49900;SDS011;35789;48.414;12.768;2022-10-13T16:50:00;19.1;;;9.4;;
49900;SDS011;35789;48.414;12.768;2022-10-13T16:55:00;19.1;;;9.4;;
49900;SDS011;35789;48.414;12.768;2022-10-13T17:00:00;18.2;;;9.5;;
49900;SDS011;35789;48.414;12.768;2022-10-13T17:05:00;18.2;;;9.5;;
49900;SDS011;35789;48.414;12.768;2022-10-13T17:10:00;18.2;;;9.5;;
49900;SDS011;35789;48.414;12.768;2022-10-13T17:15:00;18.2;;;9.5;;
49900;SDS011;35789;48.414;12.768;2022-10-13T17:20:00;18.2;;;9.5;;
49900;SDS011;35789;48.414;12.768;2022-10-13T17:25:00;18.2;;;9.5;;
49900;SDS011;35789;48.414;12.768;2022-10-13T17:30:00;19.0;;;11.9;;
49900;SDS011;35789;48.414;12.768;2022-10-13T17:35:00;19.0;;;11.9;;
49900;SDS011;35789;48.414;12.768;2022-10-13T17:40:00;19.0;;;11.9;;
49900;SDS011;35789;48.414;12.768;2022-10-13T17:45:00;19.0;;;11.9;;
49900;SDS011;35789;48.414;12.768;2022-10-13T17:50:00;19.0;;;11.9;;
49900;SDS011;35789;48.414;12.768;2022-10-13T17:55:00;19.0;;;11.9;;
49900;SDS011;35789;48.414;12.768;2022-10-13T18:00:00;23.2;;;11.7;;
49900;SDS011;35789;48.414;12.768;2022-10-13T18:05:00;23.2;;;11.7;;
49900;SDS011;35789;48.414;12.768;2022-10-13T18:10:00;23.2;;;11.7;;
49900;SDS011;35789;48.414;12.768;2022-10-13T18:15:00;23.2;;;11.7;;
49900;SDS011;35789;48.414;12.768;2022-10-13T18:20:00;23.2;;;11.7;;
49900;SDS011;35789;48.414;12.768;2022-10-13T18:25:00;23.2;;;11.7;;
49900;SDS011;35789;48.414;12.768;2022-10-13T18:30:00;29.0;;;13.2;;
49900;SDS011;35789;48.414;12.768;2022-10-13T18:35:00;29.0;;;13.2;;
49900;SDS011;35789;48.414;12.768;2022-10-13T18:40:00;29.0;;;13.2;;
49900;SDS011;35789;48.414;12.768;2022-10-13T18:45:00;29.0;;;13.2;;
49900;SDS011;35789;48.414;12.768;2022-10-13T18:50:00;29.0;;;13.2;;
49900;SDS011;35789;48.414;12.768;2022-10-13T18:55:00;29.0;;;13.2;;
49900;SDS011;35789;48.414;12.768;2022-10-13T19:00:14;24.6;;;13.8;;
49900;SDS011;35789;48.414;12.768;2022-10-13T19:05:00;24.6;;;13.8;;
49900;SDS011;35789;48.414;12.768;2022-10-13T19:10:00;24.6;;;13.8;;
49900;SDS011;35789;48.414;12.768;2022-10-13T19:15:00;24.6;;;13.8;;
49900;SDS011;35789;48.414;12.768;2022-10-13T19:20:00;24.6;;;13.8;;
49900;SDS011;35789;48.414;12.768;2022-10-13T19:25:00;24.6;;;12.3;;
49900;SDS011;35789;48.414;12.768;2022-10-13T19:30:00;23.0;;;12.3;;
49900;SDS011;35789;48.414;12.768;2022-10-13T19:35:00;23.0;;;12.3;;
49900;SDS011;35789;48.414;12.768;2022-10-13T19:40:00;23.0;;;12.3;;
49900;SDS011;35789;48.414;12.768;2022-10-13T19:45:00;23.0;;;12.3;;
49900;SDS011;35789;48.414;12.768;2022-10-13T19:50:00;23.0;;;12.3;;
49900;SDS011;35789;48.414;12.768;2022-10-13T19:55:00;25.7;;;14.7;;
49900;SDS011;35789;48.414;12.768;2022-10-13T20:00:00;25.7;;;14.7;;
49900;SDS011;35789;48.414;12.768;2022-10-13T20:05:00;25.7;;;14.7;;
49900;SDS011;35789;48.414;12.768;2022-10-13T20:10:00;25.7;;;14.7;;
49900;SDS011;35789;48.414;12.768;2022-10-13T20:15:00;25.7;;;14.7;;
49900;SDS011;35789;48.414;12.768;2022-10-13T20:20:00;25.7;;;14.7;;
49900;SDS011;35789;48.414;12.768;2022-10-13T20:25:00;25.6;;;14.1;;
49900;SDS011;35789;48.414;12.768;2022-10-13T20:30:00;25.6;;;14.1;;
49900;SDS011;35789;48.414;12.768;2022-10-13T20:35:00;25.6;;;14.1;;
49900;SDS011;35789;48.414;12.768;2022-10-13T20:40:00;25.6;;;14.1;;
49900;SDS011;35789;48.414;12.768;2022-10-13T20:45:00;25.6;;;14.1;;
49900;SDS011;35789;48.414;12.768;2022-10-13T20:50:00;25.6;;;14.1;;
49900;SDS011;35789;48.414;12.768;2022-10-13T20:55:00;26.1;;;13.8;;
49900;SDS011;35789;48.414;12.768;2022-10-13T21:00:00;26.1;;;13.8;;
49900;SDS011;35789;48.414;12.768;2022-10-13T21:05:00;26.1;;;13.8;;
49900;SDS011;35789;48.414;12.768;2022-10-13T21:10:00;26.1;;;13.8;;
49900;SDS011;35789;48.414;12.768;2022-10-13T21:15:00;26.1;;;13.8;;
49900;SDS011;35789;48.414;12.768;2022-10-13T21:20:00;26.1;;;13.8;;
49900;SDS011;35789;48.414;12.768;2022-10-13T21:25:00;25.6;;;14.6;;
49900;SDS011;35789;48.414;12.768;2022-10-13T21:30:00;25.6;;;14.6;;
49900;SDS011;35789;48.414;12.768;2022-10-13T21:35:00;25.6;;;14.6;;
49900;SDS011;35789;48.414;12.768;2022-10-13T21:40:00;25.6;;;14.6;;
49900;SDS011;35789;48.414;12.768;2022-10-13T21:45:00;25.6;;;14.6;;
49900;SDS011;35789;48.414;12.768;2022-10-13T21:50:00;25.6;;;14.6;;
49900;SDS011;35789;48.414;12.768;2022-10-13T21:55:00;26.4;;;13.9;;
49900;SDS011;35789;48.414;12.768;2022-10-13T22:00:00;26.4;;;13.9;;
49900;SDS011;35789;48.414;12.768;2022-10-13T22:05:00;26.4;;;13.9;;
49900;SDS011;35789;48.414;12.768;2022-10-13T22:10:00;26.4;;;13.9;;
49900;SDS011;35789;48.414;12.768;2022-10-13T22:15:00;26.4;;;13.9;;
49900;SDS011;35789;48.414;12.768;2022-10-13T22:20:00;26.4;;;13.9;;
49900;SDS011;35789;48.414;12.768;2022-10-13T22:25:00;26.1;;;14.2;;
49900;SDS011;35789;48.414;12.768;2022-10-13T22:30:00;26.1;;;14.2;;
49900;SDS011;35789;48.414;12.768;2022-10-13T22:35:00;26.1;;;14.2;;
49900;SDS011;35789;48.414;12.768;2022-10-13T22:40:00;26.1;;;14.2;;
49900;SDS011;35789;48.414;12.768;2022-10-13T22:45:00;26.1;;;14.2;;
49900;SDS011;35789;48.414;12.768;2022-10-13T22:50:00;26.1;;;14.2;;
49900;SDS011;35789;48.414;12.768;2022-10-13T22:55:00;24.9;;;12.6;;
49900;SDS011;35789;48.414;12.768;2022-10-13T23:00:00;24.9;;;12.6;;
49900;SDS011;35789;48.414;12.768;2022-10-13T23:05:00;24.9;;;12.6;;
49900;SDS011;35789;48.414;12.768;2022-10-13T23:10:00;24.9;;;12.6;;
49900;SDS011;35789;48.414;12.768;2022-10-13T23:15:00;24.9;;;12.6;;
49900;SDS011;35789;48.414;12.768;2022-10-13T23:20:00;24.9;;;12.6;;
49900;SDS011;35789;48.414;12.768;2022-10-13T23:25:00;26.3;;;14.4;;
49900;SDS011;35789;48.414;12.768;2022-10-13T23:30:00;26.3;;;14.4;;
49900;SDS011;35789;48.414;12.768;2022-10-13T23:35:00;26.3;;;14.4;;
49900;SDS011;35789;48.414;12.768;2022-10-13T23:40:00;26.3;;;14.4;;
49900;SDS011;35789;48.414;12.768;2022-10-13T23:45:00;26.3;;;14.4;;
49900;SDS011;35789;48.414;12.768;2022-10-13T23:50:00;26.3;;;14.4;;
49900;SDS011;35789;48.414;12.768;2022-10-13T23:55:00;26.0;;;14.5;;
